createdAt,value
2022-09-04T00:01:32.186Z,7.00
2022-09-04T00:04:43.471Z,7.55
2022-09-04T00:07:40.124Z,9.90
2022-09-04T00:10:32.115Z,10.23
2022-09-04T00:13:28.317Z,10.32
2022-09-04T00:16:21.037Z,8.52
2022-09-04T00:18:58.324Z,9.90
2022-09-04T00:21:55.353Z,10.13
2022-09-04T00:24:54.225Z,7.82
2022-09-04T00:27:43.578Z,7.93
2022-09-04T00:30:20.498Z,9.18
2022-09-04T00:33:16.831Z,9.80
2022-09-04T00:36:00.392Z,7.05
2022-09-04T00:38:48.047Z,7.13
2022-09-04T00:41:56.363Z,8.38
2022-09-04T00:44:47.771Z,8.80
2022-09-04T00:47:48.891Z,8.23
2022-09-04T00:51:07.066Z,7.30
2022-09-04T00:53:52.024Z,7.90
2022-09-04T00:56:47.133Z,7.05
2022-09-04T00:59:49.320Z,9.23
2022-09-04T01:02:57.404Z,9.80
2022-09-04T01:05:49.120Z,7.30
2022-09-04T01:08:23.728Z,8.63
2022-09-04T01:11:10.741Z,9.00
2022-09-04T01:14:25.576Z,8.43
2022-09-04T01:17:27.789Z,8.10
2022-09-04T01:20:48.048Z,8.77
2022-09-04T01:26:46.311Z,8.25
2022-09-04T01:29:36.289Z,7.13
2022-09-04T01:32:53.055Z,9.80
2022-09-04T01:35:42.113Z,7.32
2022-09-04T01:38:26.088Z,8.25
2022-09-04T01:41:12.126Z,7.22
2022-09-04T01:43:42.315Z,7.72
2022-09-04T01:46:42.404Z,8.63
2022-09-04T01:49:38.153Z,7.85
2022-09-04T01:53:09.606Z,8.40
2022-09-04T01:55:54.594Z,8.45
2022-09-04T01:58:39.136Z,8.30
2022-09-04T02:01:57.156Z,7.85
2022-09-04T02:04:56.527Z,8.88
2022-09-04T02:07:47.277Z,7.60
2022-09-04T02:10:50.203Z,8.75
2022-09-04T02:13:45.145Z,9.13
2022-09-04T02:16:22.763Z,9.38
2022-09-04T02:19:19.157Z,8.80
2022-09-04T02:22:34.839Z,7.38
2022-09-04T02:25:26.183Z,8.25
2022-09-04T02:28:33.978Z,7.82
2022-09-04T02:31:31.893Z,7.85
2022-09-04T02:34:44.620Z,8.48
2022-09-04T02:37:20.570Z,10.90
2022-09-04T02:40:16.902Z,6.60
2022-09-04T02:45:40.750Z,9.50
2022-09-04T02:48:41.856Z,7.35
2022-09-04T02:51:46.868Z,7.00
2022-09-04T02:57:27.751Z,8.95
2022-09-04T03:00:21.589Z,8.48
2022-09-04T03:03:24.562Z,6.85
2022-09-04T03:06:09.506Z,6.32
2022-09-04T03:09:11.024Z,10.27
2022-09-04T03:11:49.159Z,7.63
2022-09-04T03:14:46.754Z,7.45
2022-09-04T03:17:38.660Z,7.43
2022-09-04T03:20:26.004Z,8.00
2022-09-04T03:23:30.702Z,8.43
2022-09-04T03:26:29.415Z,10.88
2022-09-04T03:29:12.454Z,8.65
2022-09-04T03:32:15.176Z,7.70
2022-09-04T03:35:14.364Z,7.20
2022-09-04T03:38:07.823Z,7.63
2022-09-04T03:40:57.908Z,7.60
2022-09-04T03:46:47.764Z,7.43
2022-09-04T03:49:21.926Z,10.13
2022-09-04T03:52:14.059Z,7.38
2022-09-04T03:55:03.717Z,8.77
2022-09-04T03:58:02.221Z,7.50
2022-09-04T04:00:59.808Z,8.45
2022-09-04T04:03:42.449Z,8.07
2022-09-04T04:06:49.998Z,7.32
2022-09-04T04:10:07.796Z,8.77
2022-09-04T04:12:52.960Z,9.50
2022-09-04T04:15:58.655Z,7.85
2022-09-04T04:19:03.056Z,8.88
2022-09-04T04:22:23.835Z,8.38
2022-09-04T04:25:07.598Z,7.93
2022-09-04T04:28:09.384Z,7.43
2022-09-04T04:30:54.649Z,8.48
2022-09-04T04:33:49.585Z,7.68
2022-09-04T04:36:22.927Z,8.48
2022-09-04T04:39:03.408Z,7.25
2022-09-04T04:42:05.912Z,7.40
2022-09-04T04:45:04.325Z,7.82
2022-09-04T04:48:36.622Z,8.68
2022-09-04T04:51:16.119Z,7.53
2022-09-04T04:54:00.588Z,8.20
2022-09-04T04:59:56.583Z,7.80
2022-09-04T05:02:41.364Z,8.50
2022-09-04T05:05:18.826Z,7.90
2022-09-04T05:08:07.696Z,8.02
2022-09-04T05:10:43.969Z,8.00
2022-09-04T05:14:05.668Z,9.38
2022-09-04T05:17:12.507Z,6.95
2022-09-04T05:20:20.479Z,9.32
2022-09-04T05:23:36.725Z,11.25
2022-09-04T05:26:25.780Z,9.90
2022-09-04T05:29:05.223Z,10.07
2022-09-04T05:31:56.818Z,7.10
2022-09-04T05:34:50.719Z,9.52
2022-09-04T05:37:35.430Z,7.90
2022-09-04T05:40:33.538Z,8.10
2022-09-04T05:43:57.373Z,7.80
2022-09-04T05:47:10.265Z,9.52
2022-09-04T05:49:55.195Z,9.40
2022-09-04T05:53:10.195Z,8.45
2022-09-04T05:56:21.346Z,7.88
2022-09-04T05:59:38.937Z,11.25
2022-09-04T06:03:05.226Z,7.22
2022-09-04T06:06:20.924Z,10.70
2022-09-04T06:09:21.737Z,10.63
2022-09-04T06:12:06.121Z,10.93
2022-09-04T06:18:10.379Z,9.80
2022-09-04T06:20:50.176Z,11.20
2022-09-04T06:23:49.098Z,11.85
2022-09-04T06:26:31.478Z,15.23
2022-09-04T06:29:42.626Z,9.75
2022-09-04T06:32:35.007Z,9.18
2022-09-04T06:35:17.452Z,9.57
2022-09-04T06:38:00.116Z,10.18
2022-09-04T06:40:56.740Z,10.98
2022-09-04T06:43:42.200Z,11.75
2022-09-04T06:46:50.523Z,11.32
2022-09-04T06:49:24.811Z,10.02
2022-09-04T06:52:26.924Z,10.75
2022-09-04T06:55:09.985Z,11.45
2022-09-04T06:57:46.768Z,12.75
2022-09-04T07:00:17.734Z,11.68
2022-09-04T07:03:09.297Z,13.10
2022-09-04T07:06:04.674Z,10.57
2022-09-04T07:08:46.818Z,11.18
2022-09-04T07:11:59.467Z,12.32
2022-09-04T07:15:02.906Z,11.18
2022-09-04T07:17:59.523Z,10.30
2022-09-04T07:21:19.899Z,12.45
2022-09-04T07:24:47.426Z,12.85
2022-09-04T07:28:11.760Z,13.20
2022-09-04T07:31:04.293Z,10.73
2022-09-04T07:34:19.264Z,10.60
2022-09-04T07:37:14.691Z,15.50
2022-09-04T07:40:17.522Z,11.35
2022-09-04T07:43:03.963Z,10.77
2022-09-04T07:45:51.722Z,10.98
2022-09-04T07:48:44.804Z,13.02
2022-09-04T07:51:18.848Z,10.63
2022-09-04T07:54:25.312Z,11.55
2022-09-04T07:57:28.603Z,9.63
2022-09-04T08:00:10.851Z,10.52
2022-09-04T08:03:22.726Z,10.68
2022-09-04T08:09:55.649Z,10.23
2022-09-04T08:12:47.952Z,10.63
2022-09-04T08:15:47.443Z,11.32
2022-09-04T08:18:40.342Z,12.45
2022-09-04T08:21:33.191Z,12.20
2022-09-04T08:25:00.748Z,14.63
2022-09-04T08:28:22.151Z,13.55
2022-09-04T08:31:14.334Z,11.80
2022-09-04T08:38:08.839Z,12.85
2022-09-04T08:41:01.992Z,12.02
2022-09-04T08:44:02.855Z,13.35
2022-09-04T08:47:34.088Z,11.57
2022-09-04T08:54:02.016Z,10.35
2022-09-04T09:00:08.157Z,10.18
2022-09-04T09:05:34.946Z,15.98
2022-09-04T09:08:29.699Z,12.95
2022-09-04T09:11:30.147Z,15.93
2022-09-04T09:14:52.064Z,12.75
2022-09-04T09:20:19.377Z,12.70
2022-09-04T09:23:18.770Z,13.73
2022-09-04T09:26:38.249Z,14.45
2022-09-04T09:32:16.212Z,10.68
2022-09-04T09:38:10.294Z,12.75
2022-09-04T09:45:09.213Z,12.18
2022-09-04T09:48:20.448Z,13.45
2022-09-04T09:50:56.099Z,13.57
2022-09-04T09:54:07.061Z,9.93
2022-09-04T09:57:12.846Z,12.43
2022-09-04T10:00:11.993Z,13.40
2022-09-04T10:03:14.099Z,14.13
2022-09-04T10:06:23.646Z,16.58
2022-09-04T10:09:17.957Z,13.18
2022-09-04T10:15:47.873Z,12.90
2022-09-04T10:18:50.593Z,13.07
2022-09-04T10:21:30.003Z,11.70
2022-09-04T10:24:22.648Z,11.93
2022-09-04T10:27:24.066Z,12.23
2022-09-04T10:29:59.710Z,10.77
2022-09-04T10:32:57.630Z,10.90
2022-09-04T10:47:29.766Z,12.07
2022-09-04T10:50:04.118Z,12.75
2022-09-04T10:53:50.215Z,12.30
2022-09-04T10:56:53.297Z,11.20
2022-09-04T10:59:33.547Z,11.60
2022-09-04T11:02:12.725Z,14.25
2022-09-04T11:05:14.760Z,12.25
2022-09-04T11:11:40.895Z,10.77
2022-09-04T11:14:16.756Z,12.25
2022-09-04T11:58:14.122Z,11.40
2022-09-04T13:22:26.924Z,10.23
2022-09-04T13:25:23.504Z,14.02
2022-09-04T13:28:45.913Z,11.65
2022-09-04T14:14:11.186Z,8.23
2022-09-04T14:16:44.135Z,7.80
2022-09-04T14:19:43.161Z,8.52
2022-09-04T14:22:43.509Z,8.10
2022-09-04T14:25:19.360Z,6.97
2022-09-04T14:28:07.814Z,8.02
2022-09-04T14:30:54.889Z,6.97
2022-09-04T14:34:04.160Z,10.65
2022-09-04T14:37:00.159Z,7.53
2022-09-04T14:40:17.013Z,8.68
2022-09-04T14:43:16.173Z,8.65
2022-09-04T14:52:05.129Z,8.75
2022-09-04T17:07:08.048Z,6.93
2022-09-04T17:09:50.381Z,8.32
2022-09-04T17:12:43.252Z,8.05
2022-09-04T17:15:27.102Z,5.97
2022-09-04T17:17:56.382Z,7.00
2022-09-04T17:25:05.704Z,11.38
2022-09-04T17:29:01.370Z,8.45
2022-09-04T17:29:12.480Z,6.97
2022-09-04T17:29:54.386Z,9.95
2022-09-04T17:38:59.744Z,8.10
2022-09-04T17:40:44.299Z,7.63
2022-09-04T17:40:50.007Z,7.15
2022-09-04T17:42:00.772Z,8.18
2022-09-04T17:45:04.370Z,7.95
2022-09-04T17:47:44.026Z,9.88
2022-09-04T17:50:23.937Z,9.65
2022-09-04T17:53:02.278Z,8.95
2022-09-04T17:55:38.801Z,11.18
2022-09-04T17:58:30.139Z,8.90
2022-09-04T18:01:14.159Z,9.05
2022-09-04T18:04:21.806Z,7.38
2022-09-04T18:07:33.590Z,9.25
2022-09-04T18:10:52.069Z,11.20
2022-09-04T18:13:37.461Z,8.85
2022-09-04T18:16:53.316Z,9.52
2022-09-04T18:19:51.691Z,9.02
2022-09-04T18:25:21.757Z,12.55
2022-09-04T18:28:10.985Z,7.97
2022-09-04T18:37:10.472Z,9.25
2022-09-04T18:37:26.901Z,7.13
2022-09-04T18:38:02.108Z,7.35
2022-09-04T18:44:00.855Z,10.80
2022-09-04T18:50:31.291Z,9.07
2022-09-04T18:50:34.795Z,7.88
2022-09-04T18:50:52.091Z,8.68
2022-09-04T18:52:43.485Z,8.38
2022-09-04T18:55:32.248Z,7.80
2022-09-04T18:58:11.547Z,8.40
2022-09-04T19:01:06.659Z,7.53
2022-09-04T19:03:47.944Z,9.73
2022-09-04T19:06:35.029Z,7.13
2022-09-04T19:09:14.641Z,8.50
2022-09-04T19:11:54.999Z,9.40
2022-09-04T19:14:35.323Z,8.07
2022-09-04T19:17:21.293Z,11.20
2022-09-04T19:20:02.760Z,9.20
2022-09-04T19:22:40.021Z,8.35
2022-09-04T19:25:30.647Z,9.95
2022-09-04T19:28:16.553Z,9.23
2022-09-04T19:30:58.902Z,7.25
2022-09-04T19:34:03.744Z,8.82
2022-09-04T19:36:49.803Z,7.97
2022-09-04T19:45:59.686Z,10.13
2022-09-04T19:46:03.737Z,11.85
2022-09-04T19:46:43.237Z,11.88
2022-09-04T19:53:12.865Z,6.82
2022-09-04T19:53:31.647Z,10.68
2022-09-04T19:55:46.347Z,8.00
2022-09-04T19:58:43.943Z,9.43
2022-09-04T20:01:26.191Z,7.65
2022-09-04T20:04:11.871Z,11.30
2022-09-04T20:06:55.229Z,10.48
2022-09-04T20:09:51.384Z,12.43
2022-09-04T20:12:27.906Z,7.55
2022-09-04T20:15:18.178Z,9.05
2022-09-04T20:18:08.533Z,9.27
2022-09-04T20:20:45.069Z,10.18
2022-09-04T20:23:34.259Z,7.65
2022-09-04T20:26:27.749Z,9.55
2022-09-04T20:29:54.807Z,9.15
2022-09-04T20:32:37.128Z,8.68
2022-09-04T20:35:44.515Z,8.90
2022-09-04T20:38:23.251Z,8.82
2022-09-04T20:41:19.180Z,8.50
2022-09-04T20:44:31.405Z,9.95
2022-09-04T20:52:43.975Z,8.43
2022-09-04T20:52:48.889Z,10.00
2022-09-04T20:53:23.769Z,10.18
2022-09-04T20:57:13.655Z,10.45
2022-09-04T21:03:14.704Z,9.55
2022-09-04T21:03:21.234Z,8.43
2022-09-04T21:06:13.133Z,8.63
2022-09-04T21:09:22.728Z,7.85
2022-09-04T21:12:15.171Z,9.95
2022-09-04T21:14:48.582Z,7.68
2022-09-04T21:17:49.994Z,7.40
2022-09-04T21:21:00.001Z,10.43
2022-09-04T21:23:41.754Z,8.55
2022-09-04T21:26:22.746Z,8.30
2022-09-04T21:29:11.583Z,11.75
2022-09-04T21:32:10.797Z,10.43
2022-09-04T21:35:06.953Z,11.35
2022-09-04T21:38:39.166Z,8.85
2022-09-04T21:41:27.999Z,10.02
2022-09-04T21:44:28.568Z,8.23
2022-09-04T21:47:22.539Z,9.57
2022-09-04T21:50:30.571Z,8.07
2022-09-04T21:53:44.115Z,8.32
2022-09-04T22:01:07.547Z,9.25
2022-09-04T22:02:37.797Z,8.23
2022-09-04T22:02:57.625Z,10.23
2022-09-04T22:06:04.500Z,12.23
2022-09-04T22:13:35.445Z,9.13
2022-09-04T22:13:41.779Z,13.70
2022-09-04T22:15:07.424Z,8.25
2022-09-04T22:17:45.034Z,9.55
2022-09-04T22:20:44.414Z,10.68
2022-09-04T22:23:20.850Z,9.60
2022-09-04T22:26:09.205Z,8.38
2022-09-04T22:29:03.641Z,9.57
2022-09-04T22:32:44.519Z,9.80
2022-09-04T22:35:20.527Z,10.77
2022-09-04T22:38:50.860Z,11.93
2022-09-04T22:41:27.047Z,10.57
2022-09-04T22:44:05.438Z,14.60
2022-09-04T22:47:23.130Z,12.10
2022-09-04T22:50:25.295Z,11.82
2022-09-04T22:53:40.341Z,13.15
2022-09-04T22:56:23.456Z,16.15
2022-09-04T22:59:26.854Z,14.13
2022-09-04T23:03:07.283Z,15.52
2022-09-04T23:06:01.628Z,20.42
2022-09-04T23:13:42.211Z,18.27
2022-09-04T23:13:58.573Z,28.55
2022-09-04T23:15:39.521Z,36.45
2022-09-04T23:21:12.223Z,21.40
2022-09-04T23:26:33.169Z,30.20
2022-09-04T23:26:53.816Z,28.42
2022-09-04T23:28:27.543Z,17.90
2022-09-04T23:31:37.227Z,14.48
2022-09-04T23:34:27.400Z,23.90
2022-09-04T23:40:10.886Z,26.85
2022-09-04T23:43:18.884Z,20.17
2022-09-04T23:46:31.417Z,19.83
2022-09-04T23:49:33.379Z,22.20
2022-09-04T23:52:49.030Z,22.58
2022-09-04T23:55:44.975Z,20.17
2022-09-04T23:59:20.326Z,18.90
